This is the latest recevied weather packets stored in our database for station/object KK4XZ. If no packets are shown the sender has not sent any weather packets the latest 1 day(s).
| Time | Temp. | Humidity | Pressure | Rain* | Wind** | Luminosity | Snow |
|---|---|---|---|---|---|---|---|
| 1778010331 | 23.89° C | 58% | 1017.5 hPa | 0 mm | 1.34 m/s, 204° | - | - |
| 1778009726 | 23.89° C | 57% | 1017.8 hPa | 0 mm | 2.24 m/s, 202° | - | - |
| 1778009121 | 23.89° C | 58% | 1017.8 hPa | 0 mm | 1.34 m/s, 215° | - | - |
| 1778008517 | 23.89° C | 56% | 1017.8 hPa | 0 mm | 1.34 m/s, 217° | - | - |
| 1778007936 | 23.89° C | 58% | 1017.9 hPa | 0 mm | 1.79 m/s, 204° | - | - |
| 1778007327 | 24.44° C | 58% | 1017.8 hPa | 0 mm | 1.34 m/s, 244° | - | - |
| 1778006722 | 24.44° C | 58% | 1017.7 hPa | 0 mm | 1.79 m/s, 218° | - | - |
| 1778006117 | 24.44° C | 58% | 1018 hPa | 0 mm | 1.79 m/s, 217° | - | - |
| 1778005533 | 23.33° C | 61% | 1018.1 hPa | 0 mm | 1.34 m/s, 199° | - | - |
| 1778004929 | 23.33° C | 59% | 1018.2 hPa | 0 mm | 1.79 m/s, 196° | - | - |
| 1778004323 | 23.89° C | 60% | 1018.1 hPa | 0 mm | 1.79 m/s, 212° | - | - |
| 1778003717 | 23.33° C | 62% | 1018.3 hPa | 0 mm | 1.34 m/s, 226° | - | - |
| 1778003133 | 23.33° C | 60% | 1018.4 hPa | 0 mm | 1.79 m/s, 190° | - | - |
| 1778002528 | 23.89° C | 58% | 1018.2 hPa | 0 mm | 1.79 m/s, 202° | - | - |
| 1778001923 | 23.33° C | 57% | 1018.5 hPa | 0 mm | 1.34 m/s, 200° | - | - |
| 1778001318 | 23.89° C | 57% | 1018.5 hPa | 0 mm | 1.34 m/s, 216° | - | - |
| 1778000734 | 23.89° C | 56% | 1018.7 hPa | 0 mm | 1.79 m/s, 196° | - | - |
| 1778000129 | 23.89° C | 57% | 1018.6 hPa | 0 mm | 1.34 m/s, 219° | - | - |
| 1777999523 | 23.33° C | 57% | 1018.7 hPa | 0 mm | 1.34 m/s, 188° | - | - |
| 1777998919 | 24.44° C | 55% | 1018.7 hPa | 0 mm | 2.24 m/s, 185° | - | - |
| 1777998334 | 24.44° C | 55% | 1018.7 hPa | 0 mm | 1.34 m/s, 205° | - | - |
| 1777997729 | 23.89° C | 57% | 1018.8 hPa | 0 mm | 2.24 m/s, 172° | - | - |
| 1777997124 | 23.33° C | 58% | 1018.9 hPa | 0 mm | 1.34 m/s, 179° | - | - |
| 1777996519 | 23.33° C | 58% | 1019 hPa | 0 mm | 1.79 m/s, 162° | - | - |
| 1777995935 | 23.33° C | 57% | 1018.9 hPa | 0 mm | 1.34 m/s, 181° | - | - |
* Rain latest hour (hover to see other rain measurements)
** Current wind speed in m/s (hover to see current wind gust speed)